createdAt,value
2022-12-05T00:01:19.033Z,67.10
2022-12-05T00:03:47.295Z,66.80
2022-12-05T00:06:14.826Z,66.90
2022-12-05T00:08:42.226Z,66.80
2022-12-05T00:11:13.862Z,66.70
2022-12-05T00:13:41.643Z,66.30
2022-12-05T00:16:11.025Z,66.20
2022-12-05T00:18:38.462Z,66.10
2022-12-05T00:21:12.359Z,66.20
2022-12-05T00:23:39.661Z,66.10
2022-12-05T00:26:07.244Z,65.50
2022-12-05T00:28:35.025Z,65.40
2022-12-05T00:31:03.885Z,65.50
2022-12-05T00:33:37.101Z,65.30
2022-12-05T00:36:06.425Z,64.80
2022-12-05T00:38:33.734Z,66.00
2022-12-05T00:41:08.110Z,65.80
2022-12-05T00:43:38.106Z,66.20
2022-12-05T00:46:14.557Z,66.10
2022-12-05T00:48:42.144Z,66.80
2022-12-05T00:51:17.273Z,67.10
2022-12-05T00:53:44.876Z,67.00
2022-12-05T00:56:14.187Z,67.70
2022-12-05T00:58:41.597Z,67.90
2022-12-05T01:01:15.889Z,67.60
2022-12-05T01:03:43.514Z,67.40
2022-12-05T01:06:10.909Z,68.40
2022-12-05T01:08:38.432Z,68.10
2022-12-05T01:11:07.338Z,67.50
2022-12-05T01:13:34.770Z,68.10
2022-12-05T01:16:02.232Z,67.40
2022-12-05T01:18:29.529Z,67.20
2022-12-05T01:20:56.881Z,67.40
2022-12-05T01:23:25.168Z,67.20
2022-12-05T01:25:52.946Z,67.50
2022-12-05T01:28:20.400Z,67.70
2022-12-05T01:30:48.995Z,67.10
2022-12-05T01:33:17.140Z,67.40
2022-12-05T01:35:44.703Z,67.60
2022-12-05T01:38:12.995Z,67.80
2022-12-05T01:40:43.609Z,67.10
2022-12-05T01:43:17.796Z,67.80
2022-12-05T01:45:46.593Z,67.40
2022-12-05T01:48:23.132Z,67.50
2022-12-05T01:50:51.394Z,67.80
2022-12-05T01:53:18.642Z,67.20
2022-12-05T01:55:47.106Z,66.80
2022-12-05T01:58:14.457Z,66.70
2022-12-05T02:00:42.065Z,66.70
2022-12-05T02:03:11.157Z,67.20
2022-12-05T02:05:41.075Z,67.30
2022-12-05T02:08:09.816Z,67.50
2022-12-05T02:10:40.242Z,67.00
2022-12-05T02:13:16.763Z,67.00
2022-12-05T02:16:03.797Z,67.80
2022-12-05T02:18:54.538Z,68.00
2022-12-05T02:21:40.456Z,67.10
2022-12-05T02:24:34.803Z,67.20
2022-12-05T02:27:43.315Z,67.30
2022-12-05T02:30:14.689Z,67.40
2022-12-05T02:32:47.960Z,67.40
2022-12-05T02:35:18.897Z,67.20
2022-12-05T02:38:05.644Z,66.60
2022-12-05T02:40:44.965Z,65.80
2022-12-05T02:43:29.574Z,65.40
2022-12-05T02:45:59.204Z,65.80
2022-12-05T02:48:27.774Z,65.30
2022-12-05T02:50:58.021Z,65.60
2022-12-05T02:53:25.551Z,65.70
2022-12-05T02:55:52.747Z,65.70
2022-12-05T02:58:25.197Z,66.20
2022-12-05T03:00:55.764Z,66.00
2022-12-05T03:03:24.027Z,66.20
2022-12-05T03:06:08.025Z,66.50
2022-12-05T03:08:43.166Z,66.10
2022-12-05T03:11:10.567Z,66.30
2022-12-05T03:13:46.259Z,66.40
2022-12-05T03:16:50.177Z,66.30
2022-12-05T03:19:50.431Z,65.70
2022-12-05T03:22:44.455Z,65.70
2022-12-05T03:25:12.085Z,66.40
2022-12-05T03:27:59.278Z,65.70
2022-12-05T03:30:28.196Z,64.90
2022-12-05T03:33:06.080Z,64.90
2022-12-05T03:35:56.075Z,64.90
2022-12-05T03:38:33.125Z,64.00
2022-12-05T03:41:38.729Z,64.10
2022-12-05T03:44:19.705Z,63.50
2022-12-05T03:47:14.692Z,65.00
2022-12-05T03:49:50.254Z,64.50
2022-12-05T03:52:21.335Z,64.50
2022-12-05T03:55:00.521Z,64.80
2022-12-05T03:57:36.760Z,65.20
2022-12-05T04:00:10.892Z,64.40
2022-12-05T04:02:51.271Z,65.00
2022-12-05T04:05:23.078Z,66.00
2022-12-05T04:08:04.987Z,66.00
2022-12-05T04:10:48.828Z,65.90
2022-12-05T04:13:27.626Z,65.80
2022-12-05T04:16:27.034Z,66.10
2022-12-05T04:19:21.532Z,65.20
2022-12-05T04:21:51.629Z,65.50
2022-12-05T04:24:40.619Z,65.60
2022-12-05T04:27:25.210Z,65.80
2022-12-05T04:30:20.864Z,65.10
2022-12-05T04:33:06.294Z,65.20
2022-12-05T04:35:52.865Z,65.00
2022-12-05T04:38:43.972Z,65.00
2022-12-05T04:41:23.184Z,64.80
2022-12-05T04:43:50.769Z,64.30
2022-12-05T04:46:18.718Z,64.60
2022-12-05T04:48:48.772Z,64.60
2022-12-05T04:51:18.618Z,64.90
2022-12-05T04:53:46.069Z,64.10
2022-12-05T04:56:14.500Z,64.20
2022-12-05T04:58:42.165Z,64.70
2022-12-05T05:01:11.070Z,64.30
2022-12-05T05:03:44.817Z,64.00
2022-12-05T05:06:12.738Z,63.80
2022-12-05T05:08:48.603Z,62.20
2022-12-05T05:11:20.630Z,62.60
2022-12-05T05:13:48.348Z,62.40
2022-12-05T05:16:20.790Z,62.90
2022-12-05T05:18:48.254Z,61.70
2022-12-05T05:21:20.914Z,60.40
2022-12-05T05:23:48.321Z,60.50
2022-12-05T05:26:15.655Z,60.90
2022-12-05T05:28:43.436Z,60.60
2022-12-05T05:31:10.977Z,60.10
2022-12-05T05:33:38.770Z,60.70
2022-12-05T05:36:14.873Z,60.40
2022-12-05T05:38:49.730Z,61.00
2022-12-05T05:41:24.529Z,60.80
2022-12-05T05:43:51.828Z,62.90
2022-12-05T05:46:21.527Z,60.80
2022-12-05T05:48:48.961Z,61.40
2022-12-05T05:51:16.622Z,61.00
2022-12-05T05:53:43.863Z,61.60
2022-12-05T05:56:20.962Z,60.40
2022-12-05T05:58:51.597Z,60.50
2022-12-05T06:01:22.598Z,60.70
2022-12-05T06:03:51.105Z,60.30
2022-12-05T06:06:18.950Z,60.90
2022-12-05T06:08:46.346Z,60.00
2022-12-05T06:11:27.331Z,60.60
2022-12-05T06:13:58.925Z,60.90
2022-12-05T06:16:26.210Z,60.50
2022-12-05T06:19:01.109Z,61.40
2022-12-05T06:21:30.166Z,60.30
2022-12-05T06:23:57.644Z,60.60
2022-12-05T06:26:27.592Z,61.00
2022-12-05T06:28:54.926Z,61.30
2022-12-05T06:31:24.059Z,60.10
2022-12-05T06:33:51.517Z,60.50
2022-12-05T06:36:20.614Z,60.00
2022-12-05T06:38:52.573Z,58.60
2022-12-05T06:41:21.783Z,58.90
2022-12-05T06:43:49.724Z,58.00
2022-12-05T06:46:17.118Z,57.00
2022-12-05T06:48:48.013Z,56.80
2022-12-05T06:51:16.618Z,56.30
2022-12-05T06:53:44.281Z,57.00
2022-12-05T06:56:17.820Z,58.40
2022-12-05T06:58:46.310Z,57.70
2022-12-05T07:01:41.888Z,56.90
2022-12-05T07:04:19.823Z,55.80
2022-12-05T07:06:51.057Z,56.70
2022-12-05T07:09:20.078Z,56.90
2022-12-05T07:11:54.362Z,57.60
2022-12-05T07:17:12.085Z,57.60
2022-12-05T07:19:39.445Z,57.00
2022-12-05T07:22:15.713Z,56.60
2022-12-05T07:24:44.365Z,56.80
2022-12-05T07:27:11.998Z,55.80
2022-12-05T07:29:39.053Z,55.90
2022-12-05T07:33:10.105Z,57.30
2022-12-05T07:40:00.465Z,54.10
2022-12-05T07:42:28.592Z,54.30
2022-12-05T07:44:56.533Z,55.40
2022-12-05T07:47:24.472Z,56.30
2022-12-05T07:49:52.049Z,55.90
2022-12-05T07:52:19.590Z,54.80
2022-12-05T07:54:46.832Z,55.10
2022-12-05T07:57:14.038Z,55.10
2022-12-05T07:59:41.908Z,54.40
2022-12-05T08:02:19.195Z,54.00
2022-12-05T08:04:46.693Z,55.00
2022-12-05T08:07:16.620Z,54.10
2022-12-05T08:09:44.033Z,54.50
2022-12-05T08:12:11.956Z,55.30
2022-12-05T08:14:39.232Z,54.50
2022-12-05T08:17:06.456Z,53.10
2022-12-05T08:19:33.663Z,53.50
2022-12-05T08:22:00.734Z,55.50
2022-12-05T08:24:28.056Z,54.30
2022-12-05T08:26:55.210Z,55.00
2022-12-05T08:29:24.892Z,54.90
2022-12-05T08:31:52.484Z,54.90
2022-12-05T08:34:20.170Z,54.20
2022-12-05T08:36:47.513Z,53.80
2022-12-05T08:39:16.325Z,53.90
2022-12-05T08:41:47.131Z,53.60
2022-12-05T08:44:18.852Z,53.70
2022-12-05T08:46:48.156Z,52.60
2022-12-05T08:49:15.689Z,53.20
2022-12-05T08:51:43.254Z,52.70
2022-12-05T08:54:10.554Z,52.20
2022-12-05T08:56:38.735Z,52.60
2022-12-05T08:59:06.589Z,52.70
2022-12-05T09:01:37.195Z,52.90
2022-12-05T09:04:05.861Z,53.30
2022-12-05T09:06:33.242Z,53.30
2022-12-05T09:09:01.611Z,52.90
2022-12-05T09:11:31.742Z,52.90
2022-12-05T09:14:02.227Z,53.40
2022-12-05T09:16:37.992Z,54.10
2022-12-05T09:19:14.332Z,53.30
2022-12-05T09:21:41.648Z,52.80
2022-12-05T09:24:09.989Z,53.30
2022-12-05T09:26:37.170Z,52.00
2022-12-05T09:29:10.000Z,52.00
2022-12-05T09:31:45.657Z,52.80
2022-12-05T09:34:14.287Z,52.50
2022-12-05T09:36:41.600Z,51.90
2022-12-05T09:39:08.811Z,52.10
2022-12-05T09:42:06.078Z,51.80
2022-12-05T09:44:41.973Z,51.40
2022-12-05T09:47:15.207Z,50.10
2022-12-05T09:49:48.068Z,51.40
2022-12-05T09:52:26.415Z,51.70
2022-12-05T09:54:53.861Z,48.80
2022-12-05T09:57:35.461Z,48.90
2022-12-05T10:00:04.667Z,50.20
2022-12-05T10:02:55.404Z,49.90
2022-12-05T10:05:27.513Z,49.50
2022-12-05T10:07:59.771Z,48.50
2022-12-05T10:10:35.032Z,48.90
2022-12-05T10:13:21.121Z,49.30
2022-12-05T10:15:54.348Z,48.80
2022-12-05T10:18:53.858Z,49.40
2022-12-05T10:21:42.035Z,48.90
2022-12-05T10:24:32.873Z,48.90
2022-12-05T10:27:03.140Z,49.80
2022-12-05T10:29:44.058Z,50.40
2022-12-05T10:32:13.931Z,51.00
2022-12-05T10:34:42.313Z,50.10
2022-12-05T10:37:23.202Z,49.50
2022-12-05T10:39:50.846Z,50.00
2022-12-05T10:42:31.224Z,48.20
2022-12-05T10:45:00.219Z,49.50
2022-12-05T10:47:27.817Z,49.30
2022-12-05T10:49:56.568Z,48.90
2022-12-05T10:52:24.303Z,48.90
2022-12-05T10:55:05.022Z,48.60
2022-12-05T10:57:34.642Z,48.70
2022-12-05T11:00:15.405Z,48.50
2022-12-05T11:02:45.221Z,47.00
2022-12-05T11:05:12.430Z,46.10
2022-12-05T11:07:49.698Z,47.00
2022-12-05T11:10:28.017Z,46.10
2022-12-05T11:12:57.312Z,46.40
2022-12-05T11:15:26.050Z,46.70
2022-12-05T11:17:56.797Z,47.20
2022-12-05T11:20:23.976Z,47.40
2022-12-05T11:22:55.214Z,47.10
2022-12-05T11:25:28.776Z,47.40
2022-12-05T11:28:01.970Z,47.50
2022-12-05T11:30:29.778Z,47.60
2022-12-05T11:33:19.686Z,48.40
2022-12-05T11:35:47.680Z,47.30
2022-12-05T11:38:16.125Z,46.90
2022-12-05T11:40:54.680Z,47.50
2022-12-05T11:43:31.962Z,47.10
2022-12-05T11:46:27.354Z,48.20
2022-12-05T11:49:32.460Z,47.00
2022-12-05T11:52:11.803Z,48.50
2022-12-05T11:55:06.948Z,49.20
2022-12-05T11:57:52.268Z,49.40
2022-12-05T12:00:50.302Z,50.00
2022-12-05T12:03:28.498Z,50.60
2022-12-05T12:06:04.860Z,50.40
2022-12-05T12:08:55.552Z,51.20
2022-12-05T12:11:35.197Z,49.40
2022-12-05T12:14:20.803Z,50.20
2022-12-05T12:16:57.039Z,49.70
2022-12-05T12:19:44.061Z,50.30
2022-12-05T12:22:12.914Z,50.40
2022-12-05T12:25:02.815Z,50.70
2022-12-05T12:27:39.898Z,48.40
2022-12-05T12:30:10.958Z,49.60
2022-12-05T12:33:06.177Z,48.30
2022-12-05T12:35:57.137Z,49.10
2022-12-05T12:38:45.693Z,49.20
2022-12-05T12:41:33.761Z,48.30
2022-12-05T12:44:24.748Z,48.90
2022-12-05T12:46:59.967Z,48.90
2022-12-05T12:49:42.503Z,50.30
2022-12-05T12:52:15.153Z,50.50
2022-12-05T12:55:05.205Z,51.10
2022-12-05T12:57:49.818Z,50.80
2022-12-05T13:09:51.699Z,53.40
2022-12-05T13:12:24.016Z,56.80
2022-12-05T13:15:01.082Z,57.60
2022-12-05T13:17:28.381Z,57.20
2022-12-05T13:19:57.774Z,58.40
2022-12-05T13:22:26.135Z,59.40
2022-12-05T13:24:54.239Z,59.60
2022-12-05T13:27:24.434Z,60.00
2022-12-05T13:29:56.080Z,59.60
2022-12-05T13:32:37.405Z,59.90
2022-12-05T13:35:07.767Z,59.30
2022-12-05T13:37:53.656Z,58.40
2022-12-05T13:40:40.775Z,56.50
2022-12-05T13:43:07.990Z,53.70
2022-12-05T13:45:35.848Z,51.80
2022-12-05T13:48:14.736Z,50.60
2022-12-05T13:51:11.212Z,50.80
2022-12-05T13:53:45.773Z,52.40
2022-12-05T13:56:12.936Z,52.90
2022-12-05T13:58:57.563Z,52.60
2022-12-05T14:01:28.197Z,50.80
2022-12-05T14:03:57.450Z,50.20
2022-12-05T14:06:40.251Z,50.80
2022-12-05T14:09:20.259Z,51.20
2022-12-05T14:12:10.948Z,52.40
2022-12-05T14:14:59.449Z,54.00
2022-12-05T14:17:34.742Z,53.70
2022-12-05T14:20:22.961Z,53.60
2022-12-05T14:23:05.258Z,54.30
2022-12-05T14:25:40.935Z,53.70
2022-12-05T14:28:37.106Z,53.30
2022-12-05T14:31:44.199Z,51.10
2022-12-05T14:34:22.542Z,51.50
2022-12-05T14:37:16.011Z,53.10
2022-12-05T14:39:45.155Z,53.00
2022-12-05T14:42:37.014Z,53.30
2022-12-05T14:45:24.953Z,54.60
2022-12-05T14:47:59.648Z,55.50
2022-12-05T14:50:45.880Z,56.50
2022-12-05T14:53:18.970Z,57.00
2022-12-05T14:55:46.697Z,56.90
2022-12-05T14:58:29.093Z,57.10
2022-12-05T15:01:22.719Z,57.60
2022-12-05T15:04:11.688Z,58.20
2022-12-05T15:06:59.940Z,58.50
2022-12-05T15:09:38.240Z,57.70
2022-12-05T15:12:16.563Z,57.00
2022-12-05T15:14:53.128Z,56.80
2022-12-05T15:17:23.772Z,56.40
2022-12-05T15:20:32.235Z,57.20
2022-12-05T15:23:02.688Z,58.30
2022-12-05T15:25:31.518Z,59.00
2022-12-05T15:28:04.934Z,58.80
2022-12-05T15:30:41.922Z,60.10
2022-12-05T15:33:13.078Z,59.80
2022-12-05T15:35:40.637Z,60.00
2022-12-05T15:38:34.675Z,60.30
2022-12-05T15:41:01.724Z,60.50
2022-12-05T15:43:33.960Z,60.40
2022-12-05T15:46:24.601Z,60.00
2022-12-05T15:48:56.156Z,60.20
2022-12-05T15:51:31.225Z,59.80
2022-12-05T15:54:18.311Z,60.30
2022-12-05T15:56:58.603Z,60.60
2022-12-05T15:59:29.169Z,60.30
2022-12-05T16:01:58.732Z,60.10
2022-12-05T16:04:30.499Z,59.80
2022-12-05T16:06:57.928Z,60.00
2022-12-05T16:09:26.595Z,59.60
2022-12-05T16:12:03.653Z,59.60
2022-12-05T16:17:26.533Z,61.30
2022-12-05T16:19:53.898Z,60.70
2022-12-05T16:22:24.914Z,60.70
2022-12-05T16:24:57.898Z,60.60
2022-12-05T16:27:46.847Z,60.80
2022-12-05T16:30:20.749Z,60.70
2022-12-05T16:32:49.334Z,60.90
2022-12-05T16:35:39.426Z,60.10
2022-12-05T16:38:26.224Z,60.60
2022-12-05T16:40:58.724Z,60.80
2022-12-05T16:43:33.322Z,60.50
2022-12-05T16:46:08.892Z,60.30
2022-12-05T16:48:36.894Z,60.80
2022-12-05T16:51:20.740Z,60.20
2022-12-05T16:53:52.557Z,60.70
2022-12-05T16:56:32.678Z,60.40
2022-12-05T16:59:03.863Z,60.40
2022-12-05T17:01:35.656Z,60.50
2022-12-05T17:04:06.366Z,60.80
2022-12-05T17:06:33.580Z,60.70
2022-12-05T17:09:00.768Z,60.90
2022-12-05T17:11:30.210Z,61.60
2022-12-05T17:13:57.730Z,61.10
2022-12-05T17:16:26.799Z,61.90
2022-12-05T17:18:54.503Z,64.10
2022-12-05T17:21:23.615Z,65.50
2022-12-05T17:23:50.841Z,66.60
2022-12-05T17:26:19.908Z,67.90
2022-12-05T17:28:47.596Z,68.40
2022-12-05T17:31:19.628Z,68.70
2022-12-05T17:33:47.357Z,69.30
2022-12-05T17:36:15.015Z,69.60
2022-12-05T17:38:42.374Z,70.60
2022-12-05T17:41:16.037Z,69.60
2022-12-05T17:43:44.031Z,69.50
2022-12-05T17:46:11.407Z,69.40
2022-12-05T17:48:38.756Z,70.40
2022-12-05T17:51:11.351Z,69.30
2022-12-05T17:53:38.976Z,69.30
2022-12-05T17:56:09.553Z,69.30
2022-12-05T17:58:36.673Z,68.80
2022-12-05T18:01:04.102Z,68.80
2022-12-05T18:03:32.300Z,68.30
2022-12-05T18:05:59.805Z,68.00
2022-12-05T18:08:28.204Z,66.90
2022-12-05T18:10:56.356Z,66.60
2022-12-05T18:13:23.666Z,66.80
2022-12-05T18:16:19.089Z,66.70
2022-12-05T18:18:46.487Z,66.60
2022-12-05T18:21:14.095Z,66.30
2022-12-05T18:23:41.514Z,66.80
2022-12-05T18:26:09.518Z,66.10
2022-12-05T18:28:38.686Z,67.30
2022-12-05T18:31:24.188Z,66.70
2022-12-05T18:33:56.216Z,66.90
2022-12-05T18:36:28.852Z,66.30
2022-12-05T18:38:56.959Z,64.90
2022-12-05T18:41:26.117Z,64.40
2022-12-05T18:43:54.343Z,65.00
2022-12-05T18:46:21.665Z,65.00
2022-12-05T18:48:49.199Z,64.80
2022-12-05T18:51:21.664Z,64.60
2022-12-05T18:53:53.280Z,63.60
2022-12-05T18:56:25.248Z,63.00
2022-12-05T18:58:56.859Z,63.30
2022-12-05T19:02:05.174Z,62.80
2022-12-05T19:04:32.476Z,63.60
2022-12-05T19:07:00.541Z,63.30
2022-12-05T19:09:30.140Z,63.80
2022-12-05T19:11:58.878Z,63.50
2022-12-05T19:14:27.717Z,63.90
2022-12-05T19:16:59.972Z,63.20
2022-12-05T19:19:27.874Z,62.80
2022-12-05T19:21:55.195Z,62.30
2022-12-05T19:24:22.603Z,62.30
2022-12-05T19:26:52.274Z,63.00
2022-12-05T19:29:20.362Z,62.90
2022-12-05T19:31:48.023Z,62.60
2022-12-05T19:34:15.258Z,62.50
2022-12-05T19:36:44.102Z,62.20
2022-12-05T19:39:19.484Z,62.00
2022-12-05T19:41:46.651Z,63.10
2022-12-05T19:44:14.203Z,61.60
2022-12-05T19:46:42.174Z,62.00
2022-12-05T19:49:11.424Z,61.80
2022-12-05T19:51:41.262Z,61.80
2022-12-05T19:54:14.379Z,61.60
2022-12-05T19:56:41.765Z,62.40
2022-12-05T19:59:08.926Z,61.20
2022-12-05T20:05:31.566Z,60.00
2022-12-05T20:08:19.715Z,59.90
2022-12-05T20:10:53.695Z,58.50
2022-12-05T20:13:47.370Z,59.20
2022-12-05T20:16:47.488Z,59.40
2022-12-05T20:19:15.096Z,58.20
2022-12-05T20:21:44.115Z,57.60
2022-12-05T20:24:11.777Z,57.60
2022-12-05T20:26:41.664Z,58.20
2022-12-05T20:29:09.033Z,58.40
2022-12-05T20:31:40.443Z,58.50
2022-12-05T20:34:14.148Z,59.80
2022-12-05T20:36:53.447Z,60.00
2022-12-05T20:39:22.824Z,60.50
2022-12-05T20:42:08.157Z,61.00
2022-12-05T20:44:50.746Z,61.00
2022-12-05T20:47:52.783Z,61.20
2022-12-05T20:50:22.135Z,61.60
2022-12-05T20:53:27.039Z,61.80
2022-12-05T20:56:41.549Z,60.20
2022-12-05T21:00:06.988Z,59.80
2022-12-05T21:03:11.719Z,59.50
2022-12-05T21:06:34.794Z,59.40
2022-12-05T21:09:02.291Z,59.30
2022-12-05T21:11:29.936Z,59.10
2022-12-05T21:14:00.772Z,58.50
2022-12-05T21:16:33.100Z,58.90
2022-12-05T21:19:06.600Z,58.60
2022-12-05T21:21:34.824Z,59.00
2022-12-05T21:24:07.920Z,59.50
2022-12-05T21:26:35.819Z,58.60
2022-12-05T21:29:05.797Z,58.20
2022-12-05T21:31:35.642Z,57.30
2022-12-05T21:34:07.562Z,57.20
2022-12-05T21:36:38.247Z,56.80
2022-12-05T21:39:07.134Z,56.60
2022-12-05T21:41:34.788Z,57.40
2022-12-05T21:44:03.036Z,57.50
2022-12-05T21:46:30.535Z,56.90
2022-12-05T21:48:57.622Z,55.80
2022-12-05T21:51:24.775Z,55.60
2022-12-05T21:53:52.065Z,56.30
2022-12-05T21:56:23.006Z,55.90
2022-12-05T21:59:15.311Z,56.80
2022-12-05T22:01:42.603Z,55.20
2022-12-05T22:04:09.779Z,55.60
2022-12-05T22:06:37.450Z,55.90
2022-12-05T22:09:15.204Z,56.70
2022-12-05T22:11:59.374Z,57.00
2022-12-05T22:14:29.550Z,56.30
2022-12-05T22:16:56.962Z,56.30
2022-12-05T22:19:24.090Z,56.20
2022-12-05T22:21:51.105Z,56.20
2022-12-05T22:24:18.312Z,56.00
2022-12-05T22:26:45.465Z,56.90
2022-12-05T22:29:13.102Z,56.20
2022-12-05T22:31:41.316Z,56.00
2022-12-05T22:34:08.688Z,56.20
2022-12-05T22:36:36.083Z,56.00
2022-12-05T22:39:03.631Z,56.20
2022-12-05T22:41:31.357Z,56.60
2022-12-05T22:43:59.649Z,55.90
2022-12-05T22:46:30.690Z,56.00
2022-12-05T22:49:04.852Z,56.20
2022-12-05T22:51:32.782Z,56.60
2022-12-05T22:53:59.867Z,56.20
2022-12-05T22:56:28.164Z,56.90
2022-12-05T22:58:59.841Z,56.50
2022-12-05T23:01:36.517Z,56.70
2022-12-05T23:04:09.610Z,56.40
2022-12-05T23:06:37.632Z,56.50
2022-12-05T23:09:07.095Z,56.20
2022-12-05T23:11:34.875Z,56.10
2022-12-05T23:14:02.752Z,56.80
2022-12-05T23:16:32.431Z,56.70
2022-12-05T23:19:01.324Z,56.70
2022-12-05T23:21:31.213Z,56.70
2022-12-05T23:24:00.779Z,57.20
2022-12-05T23:26:30.284Z,56.60
2022-12-05T23:28:57.987Z,57.00
2022-12-05T23:31:25.358Z,56.70
2022-12-05T23:33:52.873Z,56.40
2022-12-05T23:36:20.840Z,56.60
2022-12-05T23:38:48.594Z,56.30
2022-12-05T23:41:17.924Z,56.50
2022-12-05T23:43:45.309Z,57.00
2022-12-05T23:46:25.138Z,57.50
2022-12-05T23:48:57.113Z,56.50
2022-12-05T23:51:31.224Z,56.70
2022-12-05T23:54:00.164Z,56.80
2022-12-05T23:56:31.866Z,56.00
2022-12-05T23:58:59.526Z,56.90
